Time;durP1;ratioP1;P1;durP2;ratioP2;P2;SDS_P1;SDS_P2;PMS_P1;PMS_P2;Temp;Humidity;BMP_temperature;BMP_pressure;BME280_temperature;BME280_humidity;BME280_pressure;Samples;Min_cycle;Max_cycle;Signal;HPM_P1;HPM_P2
2021/08/21 00:05:10;;;;;;;1.00;1.00;;;19.50;82.30;;;;;;10496974;28;20247;-61
2021/08/21 00:10:33;;;;;;;1.20;1.10;;;19.50;82.30;;;;;;10465398;28;20193;-62
2021/08/21 00:15:55;;;;;;;1.17;1.07;;;19.50;82.30;;;;;;10498122;28;20216;-62
2021/08/21 00:21:19;;;;;;;1.20;1.10;;;19.50;82.30;;;;;;10497102;28;20679;-62
2021/08/21 00:26:41;;;;;;;1.00;1.00;;;19.50;82.30;;;;;;10496763;28;20216;-62
2021/08/21 00:32:04;;;;;;;0.90;0.90;;;19.50;82.30;;;;;;10496146;28;20216;-62
2021/08/21 00:37:27;;;;;;;0.97;0.97;;;19.50;82.30;;;;;;10496605;28;20613;-61
2021/08/21 00:42:51;;;;;;;0.90;0.90;;;19.50;82.30;;;;;;10495054;28;20212;-61
2021/08/21 00:48:13;;;;;;;1.20;1.10;;;19.50;82.30;;;;;;10495631;28;20223;-60
2021/08/21 00:53:37;;;;;;;0.90;0.90;;;19.50;82.30;;;;;;10496074;28;20212;-62
2021/08/21 00:58:59;;;;;;;0.90;0.90;;;19.50;82.30;;;;;;10495586;28;20203;-62
2021/08/21 01:04:21;;;;;;;1.10;1.10;;;19.50;82.30;;;;;;10495117;28;20216;-62
2021/08/21 01:09:46;;;;;;;1.30;1.20;;;19.50;82.30;;;;;;10495409;28;20666;-62
2021/08/21 01:15:09;;;;;;;1.13;1.03;;;19.50;82.30;;;;;;10493654;28;20216;-61
2021/08/21 01:20:31;;;;;;;1.13;1.10;;;19.50;82.30;;;;;;10492879;28;20617;-62
2021/08/21 01:25:55;;;;;;;0.93;0.93;;;19.50;82.30;;;;;;10494194;28;20691;-62
2021/08/21 01:31:18;;;;;;;0.80;0.80;;;19.50;82.30;;;;;;10493167;28;20200;-62
2021/08/21 01:36:42;;;;;;;0.87;0.87;;;19.50;82.30;;;;;;10484646;28;20203;-61
2021/08/21 01:42:04;;;;;;;1.00;1.00;;;19.50;82.30;;;;;;10492622;28;20334;-61
2021/08/21 01:47:28;;;;;;;1.00;0.90;;;19.50;82.20;;;;;;10493684;28;20220;-62
2021/08/21 01:52:51;;;;;;;1.00;1.00;;;19.50;82.30;;;;;;10493223;28;20220;-62
2021/08/21 01:58:20;;;;;;;1.37;1.10;;;19.50;82.30;;;;;;10492262;28;20196;-61
2021/08/21 02:03:46;;;;;;;1.13;1.03;;;19.50;82.30;;;;;;10492657;28;20220;-61
2021/08/21 02:09:08;;;;;;;0.97;0.93;;;19.50;82.30;;;;;;10492710;28;20195;-61
2021/08/21 02:14:31;;;;;;;0.90;0.90;;;19.50;82.30;;;;;;10508851;22;20231;-58
2021/08/21 02:19:54;;;;;;;0.90;0.90;;;19.50;82.20;;;;;;10526777;28;20199;-55
2021/08/21 02:25:16;;;;;;;1.13;1.07;;;19.50;82.30;;;;;;10534591;28;20222;-58
2021/08/21 02:30:41;;;;;;;1.10;1.10;;;19.50;82.20;;;;;;10536339;28;20192;-57
2021/08/21 02:36:05;;;;;;;0.90;0.90;;;19.50;82.30;;;;;;10544626;28;20613;-59
2021/08/21 02:41:28;;;;;;;0.87;0.87;;;19.50;82.20;;;;;;10542476;28;20200;-60
2021/08/21 02:46:50;;;;;;;1.20;1.10;;;19.50;82.20;;;;;;10543225;28;20215;-59
2021/08/21 02:52:13;;;;;;;1.10;1.10;;;19.50;82.20;;;;;;10539014;28;20695;-58
2021/08/21 02:57:35;;;;;;;1.13;1.10;;;19.50;82.30;;;;;;10506910;28;20574;-59
2021/08/21 03:02:59;;;;;;;0.90;0.90;;;19.50;82.20;;;;;;10542451;28;20226;-59
2021/08/21 03:08:22;;;;;;;0.80;0.80;;;19.50;82.20;;;;;;10524357;28;20216;-61
2021/08/21 03:13:44;;;;;;;1.10;1.00;;;19.50;82.20;;;;;;10506509;28;20231;-59
2021/08/21 03:19:06;;;;;;;1.00;0.90;;;19.50;82.20;;;;;;10499285;28;20200;-58
2021/08/21 03:24:29;;;;;;;0.80;0.80;;;19.50;82.20;;;;;;10499294;28;20227;-58
2021/08/21 03:29:52;;;;;;;0.93;0.93;;;19.50;82.20;;;;;;10520282;28;20196;-58
2021/08/21 03:35:14;;;;;;;0.83;0.83;;;19.50;82.20;;;;;;10541518;28;20219;-60
2021/08/21 03:40:37;;;;;;;0.80;0.80;;;19.50;82.20;;;;;;10540948;28;20203;-59
2021/08/21 03:45:59;;;;;;;0.87;0.87;;;19.50;82.20;;;;;;10530834;28;20637;-61
2021/08/21 03:51:21;;;;;;;0.90;0.90;;;19.50;82.20;;;;;;10532077;28;20208;-59
2021/08/21 03:56:45;;;;;;;0.80;0.80;;;19.50;82.20;;;;;;10457572;28;20205;-59
2021/08/21 04:02:07;;;;;;;0.80;0.80;;;19.50;82.20;;;;;;10456570;28;20316;-59
2021/08/21 04:07:29;;;;;;;1.33;1.23;;;19.50;82.20;;;;;;10475384;28;20220;-60
2021/08/21 04:12:52;;;;;;;1.20;1.10;;;19.50;82.20;;;;;;10469360;28;20227;-60
2021/08/21 04:18:14;;;;;;;0.93;0.80;;;19.40;82.20;;;;;;10455657;28;20196;-58
2021/08/21 04:23:36;;;;;;;0.97;0.80;;;19.50;82.20;;;;;;10455437;28;20224;-58
2021/08/21 04:29:00;;;;;;;1.00;0.90;;;19.50;82.20;;;;;;10493842;28;20224;-58
2021/08/21 04:34:22;;;;;;;0.80;0.80;;;19.50;82.20;;;;;;10496409;28;20219;-59
2021/08/21 04:39:44;;;;;;;0.63;0.63;;;19.50;82.20;;;;;;10496024;28;20196;-59
2021/08/21 04:45:08;;;;;;;0.93;0.93;;;19.50;82.10;;;;;;10496556;28;20215;-58
2021/08/21 04:50:31;;;;;;;0.97;0.97;;;19.50;82.00;;;;;;10496118;28;20674;-58
2021/08/21 04:55:53;;;;;;;0.80;0.80;;;19.50;81.80;;;;;;10529689;28;20204;-59
2021/08/21 05:01:16;;;;;;;1.33;1.00;;;19.50;81.80;;;;;;10500982;28;20203;-57
2021/08/21 05:06:39;;;;;;;0.93;0.90;;;19.50;81.70;;;;;;10497710;28;20701;-59
2021/08/21 05:12:01;;;;;;;0.73;0.73;;;19.60;81.80;;;;;;10503056;28;20209;-58
2021/08/21 05:17:24;;;;;;;0.80;0.80;;;19.60;81.80;;;;;;10494618;28;20671;-60
2021/08/21 05:23:03;;;;;;;0.90;0.90;;;19.60;81.80;;;;;;10494497;28;20695;-58
2021/08/21 05:28:25;;;;;;;0.80;0.80;;;19.50;81.80;;;;;;10493978;28;20595;-58
2021/08/21 05:33:48;;;;;;;0.73;0.73;;;19.50;81.80;;;;;;10492387;28;20568;-59
2021/08/21 05:39:11;;;;;;;0.80;0.80;;;19.60;81.90;;;;;;10496633;28;20189;-58
2021/08/21 05:44:33;;;;;;;1.30;1.00;;;19.50;81.90;;;;;;10493766;28;20246;-56
2021/08/21 05:50:00;;;;;;;0.90;0.90;;;19.50;81.90;;;;;;10493595;28;20193;-56
2021/08/21 05:55:22;;;;;;;1.00;0.90;;;19.50;82.00;;;;;;10499103;28;20557;-57
2021/08/21 06:00:45;;;;;;;0.80;0.70;;;19.50;82.00;;;;;;10492538;28;20695;-57
2021/08/21 06:06:10;;;;;;;1.00;0.90;;;19.50;82.60;;;;;;10493162;28;20591;-57
2021/08/21 06:11:32;;;;;;;0.80;0.80;;;19.60;82.10;;;;;;10475779;28;20193;-60
2021/08/21 06:16:55;;;;;;;0.93;0.83;;;19.50;82.00;;;;;;10451489;28;20204;-60
2021/08/21 06:22:18;;;;;;;0.80;0.80;;;19.50;82.00;;;;;;10451257;28;20217;-58
2021/08/21 06:27:40;;;;;;;0.77;0.77;;;19.50;81.90;;;;;;10451480;28;20561;-60
2021/08/21 06:33:02;;;;;;;0.60;0.60;;;19.60;82.00;;;;;;10450979;28;20239;-59
2021/08/21 06:38:25;;;;;;;0.70;0.70;;;19.50;81.90;;;;;;10450964;28;20193;-59
2021/08/21 06:43:48;;;;;;;0.70;0.70;;;19.50;82.00;;;;;;10491490;28;20223;-58
2021/08/21 06:49:10;;;;;;;0.80;0.80;;;19.50;82.00;;;;;;10492260;28;20582;-58
2021/08/21 06:54:33;;;;;;;0.70;0.70;;;19.50;82.00;;;;;;10515614;28;20594;-59
2021/08/21 06:59:57;;;;;;;0.80;0.80;;;19.60;82.10;;;;;;10497684;28;20197;-57
2021/08/21 07:05:19;;;;;;;0.80;0.80;;;19.50;82.00;;;;;;10492478;28;20220;-56
2021/08/21 07:10:43;;;;;;;0.80;0.70;;;19.50;82.00;;;;;;10481644;28;20357;-58
2021/08/21 07:16:05;;;;;;;0.83;0.83;;;19.50;82.10;;;;;;10486083;28;20671;-56
2021/08/21 07:21:27;;;;;;;0.73;0.73;;;19.50;82.10;;;;;;10492771;28;20212;-59
2021/08/21 07:26:51;;;;;;;0.80;0.80;;;19.50;82.10;;;;;;10489353;28;20212;-58
2021/08/21 07:32:13;;;;;;;0.80;0.80;;;19.50;82.10;;;;;;10502157;28;20703;-58
2021/08/21 07:37:36;;;;;;;0.60;0.60;;;19.50;82.00;;;;;;10498709;28;20598;-59
2021/08/21 07:42:59;;;;;;;0.70;0.70;;;19.50;82.00;;;;;;10497985;28;20221;-60
2021/08/21 07:48:21;;;;;;;0.70;0.63;;;19.50;82.00;;;;;;10498590;28;20227;-59
2021/08/21 07:53:43;;;;;;;0.60;0.60;;;19.60;82.10;;;;;;10498730;28;20219;-60
2021/08/21 07:59:07;;;;;;;0.70;0.70;;;19.60;82.10;;;;;;10509867;28;20189;-59
2021/08/21 08:04:29;;;;;;;0.70;0.70;;;19.50;82.10;;;;;;10504424;28;20251;-59
2021/08/21 08:09:51;;;;;;;0.80;0.80;;;19.50;82.10;;;;;;10506765;28;20604;-61
2021/08/21 08:15:14;;;;;;;0.80;0.80;;;19.50;82.10;;;;;;10526792;22;20843;-63
2021/08/21 08:20:36;;;;;;;0.60;0.60;;;19.50;82.20;;;;;;10527505;28;20206;-64
2021/08/21 08:25:59;;;;;;;0.83;0.80;;;19.50;82.20;;;;;;10507867;28;20702;-64
2021/08/21 08:31:22;;;;;;;0.70;0.70;;;19.50;82.10;;;;;;10497993;28;20195;-64
2021/08/21 08:36:44;;;;;;;0.50;0.50;;;19.50;82.10;;;;;;10497847;28;20208;-63
2021/08/21 08:42:08;;;;;;;0.63;0.63;;;19.50;82.10;;;;;;10497151;28;20197;-64
2021/08/21 08:47:32;;;;;;;0.80;0.80;;;19.50;82.20;;;;;;10496537;28;20216;-64
2021/08/21 08:52:54;;;;;;;0.70;0.70;;;19.50;82.20;;;;;;10496507;28;20618;-63
2021/08/21 08:58:16;;;;;;;0.77;0.77;;;19.50;82.10;;;;;;10496366;28;20199;-62
2021/08/21 09:03:40;;;;;;;0.43;0.43;;;19.60;82.20;;;;;;10497677;28;20220;-63
2021/08/21 09:09:12;;;;;;;0.80;0.80;;;19.50;82.20;;;;;;10491205;28;20227;-63
2021/08/21 09:14:34;;;;;;;0.60;0.60;;;19.50;82.20;;;;;;10484607;28;20243;-63
2021/08/21 09:20:05;;;;;;;0.60;0.60;;;19.50;82.20;;;;;;10495589;28;20200;-63
2021/08/21 09:25:30;;;;;;;0.50;0.50;;;19.50;82.20;;;;;;10493840;28;20216;-63
2021/08/21 09:31:03;;;;;;;0.70;0.70;;;19.50;82.20;;;;;;10486818;28;20201;-63
2021/08/21 09:36:31;;;;;;;0.70;0.70;;;19.50;82.10;;;;;;10495521;28;20216;-63
2021/08/21 09:41:54;;;;;;;0.50;0.50;;;19.50;82.20;;;;;;10494674;28;20591;-64
2021/08/21 09:47:23;;;;;;;0.67;0.67;;;19.50;82.10;;;;;;10494826;28;20220;-64
2021/08/21 09:52:48;;;;;;;0.53;0.53;;;19.50;82.20;;;;;;10494318;28;20188;-64
2021/08/21 09:58:15;;;;;;;0.70;0.70;;;19.50;82.20;;;;;;10489677;28;20549;-63
2021/08/21 10:03:38;;;;;;;0.70;0.70;;;19.50;82.20;;;;;;10491519;28;20220;-64
2021/08/21 10:09:05;;;;;;;0.57;0.57;;;19.50;82.20;;;;;;10494174;28;20209;-63
2021/08/21 10:14:28;;;;;;;0.60;0.60;;;19.50;82.20;;;;;;10452088;28;20723;-63
2021/08/21 10:19:51;;;;;;;0.83;0.83;;;19.50;82.20;;;;;;10450369;28;20545;-64
2021/08/21 10:25:15;;;;;;;0.70;0.70;;;19.50;82.30;;;;;;10450226;28;20224;-63
2021/08/21 10:30:43;;;;;;;0.70;0.70;;;19.50;82.30;;;;;;10449921;28;20196;-64
2021/08/21 10:36:05;;;;;;;0.63;0.63;;;19.50;82.30;;;;;;10450249;28;20205;-64
2021/08/21 10:41:36;;;;;;;0.60;0.60;;;19.50;82.30;;;;;;10451304;28;20204;-64
2021/08/21 10:46:58;;;;;;;0.60;0.60;;;19.50;82.30;;;;;;10476370;28;20228;-64
2021/08/21 10:53:03;;;;;;;0.50;0.50;;;19.50;82.30;;;;;;10495700;28;20207;-64
2021/08/21 10:58:28;;;;;;;0.47;0.47;;;19.50;82.20;;;;;;10499455;28;20579;-64
2021/08/21 11:03:52;;;;;;;0.60;0.60;;;19.50;82.40;;;;;;10501855;28;20661;-64
2021/08/21 11:09:24;;;;;;;0.70;0.70;;;19.40;82.40;;;;;;10500812;28;20216;-63
2021/08/21 11:14:50;;;;;;;0.53;0.53;;;19.50;82.40;;;;;;10459868;28;20221;-64
2021/08/21 11:20:25;;;;;;;0.80;0.80;;;19.50;82.40;;;;;;10456544;28;20185;-63
2021/08/21 11:25:48;;;;;;;0.60;0.60;;;19.50;82.30;;;;;;10457598;28;20223;-64
2021/08/21 11:31:12;;;;;;;0.60;0.60;;;19.50;82.40;;;;;;10456204;28;20204;-63
2021/08/21 11:36:35;;;;;;;0.50;0.50;;;19.50;82.40;;;;;;10488469;28;20223;-63
2021/08/21 11:41:57;;;;;;;0.60;0.60;;;19.50;82.40;;;;;;10499856;28;20302;-63
2021/08/21 11:47:30;;;;;;;0.70;0.70;;;19.50;82.50;;;;;;10489694;28;20227;-63
2021/08/21 11:52:54;;;;;;;0.47;0.47;;;19.50;82.40;;;;;;10499361;28;20188;-63
2021/08/21 11:58:16;;;;;;;0.60;0.60;;;19.50;82.50;;;;;;10498532;28;20196;-63
2021/08/21 12:09:17;;;;;;;0.60;0.60;;;19.40;82.50;;;;;;10490331;28;20221;-63
2021/08/21 12:14:40;;;;;;;0.63;0.60;;;19.50;82.50;;;;;;10457003;28;20225;-64
2021/08/21 12:20:04;;;;;;;0.50;0.50;;;19.50;82.50;;;;;;10455057;28;20193;-63
2021/08/21 12:25:44;;;;;;;0.50;0.50;;;19.40;82.40;;;;;;10455083;28;20213;-64
2021/08/21 12:31:08;;;;;;;0.63;0.63;;;19.50;82.30;;;;;;10454017;28;20181;-64
2021/08/21 12:36:32;;;;;;;0.63;0.63;;;19.40;82.40;;;;;;10487791;28;20220;-64
2021/08/21 12:41:55;;;;;;;0.50;0.50;;;19.40;82.40;;;;;;10497368;28;20200;-64
2021/08/21 12:47:20;;;;;;;0.70;0.70;;;19.40;82.40;;;;;;10496854;28;20650;-64
2021/08/21 12:52:45;;;;;;;0.60;0.57;;;19.40;82.40;;;;;;10496469;28;20733;-64
2021/08/21 12:58:09;;;;;;;0.77;0.77;;;19.40;82.40;;;;;;10494255;28;20672;-63
2021/08/21 13:03:31;;;;;;;0.60;0.60;;;19.40;82.40;;;;;;10494339;28;20637;-64
2021/08/21 13:08:54;;;;;;;0.60;0.60;;;19.40;82.40;;;;;;10495793;28;20699;-63
2021/08/21 13:14:16;;;;;;;0.50;0.50;;;19.40;82.40;;;;;;10495187;28;20235;-64
2021/08/21 13:19:39;;;;;;;0.40;0.40;;;19.40;82.30;;;;;;10495029;28;20188;-64
2021/08/21 13:25:04;;;;;;;0.60;0.60;;;19.40;82.40;;;;;;10487103;28;20626;-64
2021/08/21 13:30:26;;;;;;;0.60;0.60;;;19.40;82.40;;;;;;10494491;28;20698;-64
2021/08/21 13:35:49;;;;;;;0.60;0.60;;;19.40;82.30;;;;;;10491288;28;20569;-64
2021/08/21 13:41:12;;;;;;;0.60;0.60;;;19.40;82.30;;;;;;10495074;28;20197;-64
2021/08/21 13:46:35;;;;;;;0.77;0.60;;;19.40;82.30;;;;;;10494856;28;20228;-64
2021/08/21 13:51:57;;;;;;;0.70;0.70;;;19.40;82.40;;;;;;10494674;28;20207;-64
2021/08/21 13:57:21;;;;;;;0.57;0.57;;;19.40;82.30;;;;;;10494110;28;20220;-64
2021/08/21 14:02:43;;;;;;;0.67;0.60;;;19.40;82.30;;;;;;10492388;28;20199;-64
2021/08/21 14:08:06;;;;;;;0.60;0.60;;;19.40;82.30;;;;;;10486725;28;20216;-64
2021/08/21 14:13:29;;;;;;;0.50;0.50;;;19.40;82.30;;;;;;10505524;22;20227;-61
2021/08/21 14:18:51;;;;;;;0.60;0.60;;;19.40;82.30;;;;;;10527106;28;20203;-62
2021/08/21 14:24:13;;;;;;;0.60;0.60;;;19.40;82.30;;;;;;10524571;28;20299;-63
2021/08/21 14:29:37;;;;;;;0.50;0.50;;;19.40;82.30;;;;;;10505157;28;20726;-61
2021/08/21 14:34:59;;;;;;;0.77;0.77;;;19.40;82.30;;;;;;10505967;28;20694;-61
2021/08/21 14:40:21;;;;;;;0.60;0.60;;;19.40;82.30;;;;;;10506635;28;20667;-58
2021/08/21 14:45:44;;;;;;;0.60;0.60;;;19.40;82.30;;;;;;10505690;28;20207;-58
2021/08/21 14:51:08;;;;;;;0.50;0.50;;;19.40;82.30;;;;;;10505333;28;20212;-57
2021/08/21 14:56:32;;;;;;;0.57;0.57;;;19.40;82.30;;;;;;10472256;28;20701;-58
2021/08/21 15:01:55;;;;;;;0.63;0.63;;;19.40;82.60;;;;;;10506755;28;20285;-64
2021/08/21 15:07:17;;;;;;;0.53;0.53;;;19.40;82.30;;;;;;10504667;28;20249;-54
2021/08/21 15:12:40;;;;;;;0.40;0.40;;;19.40;82.30;;;;;;10477884;28;20668;-58
2021/08/21 15:18:04;;;;;;;0.60;0.60;;;19.40;82.30;;;;;;10474657;28;20254;-58
2021/08/21 15:23:26;;;;;;;0.70;0.70;;;19.40;82.40;;;;;;10506810;28;20203;-55
2021/08/21 15:28:48;;;;;;;0.70;0.70;;;19.40;82.30;;;;;;10505084;28;20227;-58
2021/08/21 15:34:12;;;;;;;0.67;0.67;;;19.40;82.30;;;;;;10505080;28;20219;-59
2021/08/21 15:39:34;;;;;;;0.40;0.40;;;19.40;82.30;;;;;;10500921;28;20195;-58
2021/08/21 15:44:57;;;;;;;0.60;0.60;;;19.40;82.30;;;;;;10489981;28;20224;-63
2021/08/21 15:50:21;;;;;;;0.50;0.50;;;19.40;82.30;;;;;;10497646;28;20220;-58
2021/08/21 15:55:43;;;;;;;0.60;0.60;;;19.40;82.30;;;;;;10499241;28;20216;-63
2021/08/21 16:01:06;;;;;;;0.70;0.70;;;19.40;82.30;;;;;;10488418;28;20196;-55
2021/08/21 16:06:29;;;;;;;0.50;0.50;;;19.40;82.40;;;;;;10497330;28;20801;-63
2021/08/21 16:11:51;;;;;;;0.70;0.70;;;19.40;82.30;;;;;;10497411;28;20192;-56
2021/08/21 16:17:13;;;;;;;0.63;0.63;;;19.30;82.30;;;;;;10496692;28;20208;-57
2021/08/21 16:22:37;;;;;;;0.83;0.80;;;19.40;82.30;;;;;;10496306;28;20275;-60
2021/08/21 16:27:59;;;;;;;0.50;0.50;;;19.40;82.30;;;;;;10496523;28;20225;-58
2021/08/21 16:33:22;;;;;;;0.63;0.63;;;19.30;82.20;;;;;;10496154;28;20679;-60
2021/08/21 16:38:46;;;;;;;0.60;0.60;;;19.40;82.30;;;;;;10495933;28;20271;-57
2021/08/21 16:44:08;;;;;;;0.60;0.60;;;19.40;82.30;;;;;;10491840;28;20225;-55
2021/08/21 16:49:30;;;;;;;0.60;0.60;;;19.40;82.30;;;;;;10491131;28;20212;-63
2021/08/21 16:54:54;;;;;;;0.67;0.67;;;19.40;82.30;;;;;;10494851;28;20580;-58
2021/08/21 17:00:16;;;;;;;0.40;0.40;;;19.40;82.30;;;;;;10495386;28;20196;-59
2021/08/21 17:05:38;;;;;;;0.67;0.67;;;19.40;82.30;;;;;;10494929;28;20220;-58
2021/08/21 17:11:02;;;;;;;0.60;0.60;;;19.40;82.30;;;;;;10494148;28;20694;-61
2021/08/21 17:16:24;;;;;;;0.60;0.60;;;19.40;82.30;;;;;;10494859;28;20228;-56
2021/08/21 17:21:47;;;;;;;0.53;0.53;;;19.40;82.30;;;;;;10493849;28;20188;-55
2021/08/21 17:27:10;;;;;;;0.90;0.80;;;19.40;82.20;;;;;;10493858;28;20231;-64
2021/08/21 17:32:32;;;;;;;0.60;0.60;;;19.40;82.30;;;;;;10493465;28;20196;-58
2021/08/21 17:37:54;;;;;;;0.60;0.60;;;19.40;82.20;;;;;;10488443;28;20216;-56
2021/08/21 17:43:18;;;;;;;0.67;0.67;;;19.40;82.00;;;;;;10492373;28;20199;-59
2021/08/21 17:48:40;;;;;;;0.60;0.60;;;19.40;81.80;;;;;;10492273;28;20208;-59
2021/08/21 17:54:02;;;;;;;0.40;0.40;;;19.50;81.80;;;;;;10494732;28;20216;-61
2021/08/21 17:59:25;;;;;;;0.60;0.60;;;19.50;81.80;;;;;;10492339;28;20571;-61
2021/08/21 18:04:48;;;;;;;0.70;0.60;;;19.50;81.80;;;;;;10494325;28;20216;-60
2021/08/21 18:10:11;;;;;;;0.60;0.60;;;19.50;81.70;;;;;;10487110;28;20223;-62
2021/08/21 18:15:35;;;;;;;0.63;0.63;;;19.50;81.70;;;;;;10493330;28;20227;-62
2021/08/21 18:20:57;;;;;;;0.50;0.50;;;19.50;81.80;;;;;;10493339;28;20540;-59
2021/08/21 18:26:20;;;;;;;0.70;0.70;;;19.50;81.80;;;;;;10494311;28;20221;-59
2021/08/21 18:31:43;;;;;;;0.33;0.33;;;19.50;81.80;;;;;;10493530;28;20219;-56
2021/08/21 18:37:06;;;;;;;0.60;0.60;;;19.50;81.90;;;;;;10493810;28;20216;-59
2021/08/21 18:42:28;;;;;;;0.60;0.60;;;19.50;82.00;;;;;;10490540;28;20192;-56
2021/08/21 18:47:52;;;;;;;0.70;0.70;;;19.50;82.00;;;;;;10482041;28;20220;-62
2021/08/21 18:53:14;;;;;;;0.50;0.50;;;19.50;82.00;;;;;;10491782;28;20196;-62
2021/08/21 18:58:36;;;;;;;0.50;0.50;;;19.50;82.10;;;;;;10493187;28;20196;-60
2021/08/21 19:03:59;;;;;;;0.60;0.60;;;19.50;82.10;;;;;;10491578;28;20219;-61
2021/08/21 19:09:21;;;;;;;0.67;0.67;;;19.50;82.20;;;;;;10490689;28;20208;-56
2021/08/21 19:14:44;;;;;;;0.60;0.60;;;19.50;82.20;;;;;;10455365;28;20596;-62
2021/08/21 19:20:08;;;;;;;0.40;0.40;;;19.50;82.30;;;;;;10494445;28;20267;-61
2021/08/21 19:25:32;;;;;;;0.73;0.73;;;19.50;82.30;;;;;;10490976;28;20236;-59
2021/08/21 19:30:55;;;;;;;0.50;0.50;;;19.50;82.30;;;;;;10499584;28;20353;-59
2021/08/21 19:36:18;;;;;;;0.70;0.70;;;19.50;82.30;;;;;;10499428;28;20216;-64
2021/08/21 19:41:40;;;;;;;0.50;0.50;;;19.50;82.40;;;;;;10497705;28;20192;-57
2021/08/21 19:47:03;;;;;;;0.50;0.50;;;19.50;82.30;;;;;;10498388;28;20231;-59
2021/08/21 19:52:26;;;;;;;0.60;0.60;;;19.50;82.40;;;;;;10497093;28;20188;-58
2021/08/21 19:57:49;;;;;;;0.50;0.50;;;19.50;82.40;;;;;;10489030;28;20223;-62
2021/08/21 20:03:11;;;;;;;0.43;0.43;;;19.50;82.40;;;;;;10498991;28;20200;-58
2021/08/21 20:08:34;;;;;;;0.50;0.50;;;19.50;82.30;;;;;;10498780;28;20221;-63
2021/08/21 20:19:01;;;;;;;0.40;0.40;;;19.50;82.40;;;;;;10489326;28;20251;-62
2021/08/21 20:24:25;;;;;;;0.60;0.60;;;19.50;82.40;;;;;;10497848;28;20212;-62
2021/08/21 20:29:47;;;;;;;0.50;0.50;;;19.50;82.40;;;;;;10497187;28;20224;-62
2021/08/21 20:35:11;;;;;;;0.57;0.57;;;19.50;82.40;;;;;;10497263;28;20212;-62
2021/08/21 20:40:35;;;;;;;0.50;0.50;;;19.50;82.40;;;;;;10496853;28;20684;-62
2021/08/21 20:45:57;;;;;;;0.80;0.80;;;19.50;82.40;;;;;;10480504;28;20692;-63
2021/08/21 20:51:19;;;;;;;0.57;0.57;;;19.50;82.40;;;;;;10455653;28;20213;-62
2021/08/21 20:56:42;;;;;;;0.60;0.60;;;19.50;82.40;;;;;;10537683;28;20230;-62
2021/08/21 21:02:05;;;;;;;0.53;0.53;;;19.50;82.40;;;;;;10452912;28;20687;-62
2021/08/21 21:07:28;;;;;;;0.50;0.50;;;19.50;82.40;;;;;;10453680;28;20696;-62
2021/08/21 21:12:51;;;;;;;0.57;0.57;;;19.50;82.40;;;;;;10481401;28;20200;-62
2021/08/21 21:18:13;;;;;;;0.50;0.50;;;19.50;82.40;;;;;;10503861;28;20223;-62
2021/08/21 21:23:37;;;;;;;0.60;0.60;;;19.50;82.40;;;;;;10535055;28;20199;-62
2021/08/21 21:29:01;;;;;;;0.57;0.57;;;19.50;82.40;;;;;;10534469;28;20204;-62
2021/08/21 21:34:23;;;;;;;0.57;0.57;;;19.50;82.40;;;;;;10536462;28;20215;-63
2021/08/21 21:39:45;;;;;;;0.60;0.60;;;19.50;82.40;;;;;;10535197;28;20580;-63
2021/08/21 21:45:10;;;;;;;0.60;0.60;;;19.50;82.30;;;;;;10530460;28;20220;-63
2021/08/21 21:50:32;;;;;;;0.47;0.47;;;19.50;82.40;;;;;;10534932;28;20215;-63
2021/08/21 21:55:54;;;;;;;0.60;0.60;;;19.50;82.30;;;;;;10500494;28;20223;-63
2021/08/21 22:01:18;;;;;;;0.57;0.50;;;19.50;82.40;;;;;;10496411;28;20197;-63
2021/08/21 22:06:40;;;;;;;0.60;0.60;;;19.50;82.30;;;;;;10493231;28;20223;-63
2021/08/21 22:12:02;;;;;;;0.70;0.70;;;19.50;82.30;;;;;;10493266;28;20227;-62
2021/08/21 22:17:26;;;;;;;0.70;0.70;;;19.50;82.30;;;;;;10497932;28;20231;-61
2021/08/21 22:22:48;;;;;;;0.53;0.53;;;19.50;82.30;;;;;;10495657;28;20275;-63
2021/08/21 22:28:14;;;;;;;0.67;0.67;;;19.50;82.30;;;;;;10492026;28;20209;-62
2021/08/21 22:33:38;;;;;;;0.80;0.80;;;19.50;82.40;;;;;;10507186;28;20571;-63
2021/08/21 22:39:01;;;;;;;0.70;0.70;;;19.50;82.30;;;;;;10492419;28;20201;-62
2021/08/21 22:44:23;;;;;;;0.60;0.60;;;19.50;82.30;;;;;;10490540;28;20219;-63
2021/08/21 22:49:47;;;;;;;0.60;0.60;;;19.50;82.30;;;;;;10498309;28;20797;-63
2021/08/21 22:55:09;;;;;;;0.70;0.70;;;19.50;82.40;;;;;;10528787;28;20218;-62
2021/08/21 23:00:32;;;;;;;0.70;0.70;;;19.50;82.40;;;;;;10510236;28;20667;-62
2021/08/21 23:05:55;;;;;;;0.80;0.70;;;19.50;82.40;;;;;;10502092;28;20699;-62
2021/08/21 23:11:17;;;;;;;0.70;0.70;;;19.50;82.50;;;;;;10499321;28;20621;-63
2021/08/21 23:16:39;;;;;;;0.60;0.60;;;19.50;82.40;;;;;;10500119;28;20228;-63
2021/08/21 23:22:03;;;;;;;0.80;0.80;;;19.50;82.40;;;;;;10502769;28;20196;-63
2021/08/21 23:27:25;;;;;;;0.60;0.60;;;19.50;82.40;;;;;;10499883;28;20220;-63
2021/08/21 23:32:53;;;;;;;0.70;0.60;;;19.50;82.40;;;;;;10499634;28;20212;-62
2021/08/21 23:38:17;;;;;;;1.00;0.90;;;19.50;82.40;;;;;;10499112;28;20696;-62
2021/08/21 23:43:39;;;;;;;0.53;0.53;;;19.50;82.40;;;;;;10499474;28;20196;-62
2021/08/21 23:49:01;;;;;;;0.70;0.70;;;19.50;82.40;;;;;;10503022;28;20216;-62
2021/08/21 23:54:25;;;;;;;0.73;0.67;;;19.50;82.40;;;;;;10515621;28;20224;-62
2021/08/21 23:59:47;;;;;;;0.60;0.60;;;19.50;82.40;;;;;;10521719;28;20192;-62
